Time;durP1;ratioP1;P1;durP2;ratioP2;P2;SDS_P1;SDS_P2;PMS_P1;PMS_P2;Temp;Humidity;BMP_temperature;BMP_pressure;BME280_temperature;BME280_humidity;BME280_pressure;Samples;Min_cycle;Max_cycle;Signal;HPM_P1;HPM_P2
2023/08/24 00:00:11;;;;;;;19.75;12.43;;;;;;;;;;5085436;28;20467;-56
2023/08/24 00:02:37;;;;;;;16.83;11.23;;;;;;;;;;5084871;28;20028;-55
2023/08/24 00:05:02;;;;;;;16.95;10.88;;;;;;;;;;5085039;28;20406;-56
2023/08/24 00:07:27;;;;;;;16.73;11.23;;;;;;;;;;5083858;28;20027;-54
2023/08/24 00:09:53;;;;;;;14.57;11.63;;;;;;;;;;5086485;28;20389;-56
2023/08/24 00:12:18;;;;;;;14.38;11.00;;;;;;;;;;5084444;28;20260;-54
2023/08/24 00:14:43;;;;;;;14.52;10.65;;;;;;;;;;5087506;28;20024;-54
2023/08/24 00:17:09;;;;;;;16.53;12.47;;;;;;;;;;5085526;28;20031;-58
2023/08/24 00:19:34;;;;;;;12.87;10.87;;;;;;;;;;5086423;28;20241;-55
2023/08/24 00:21:59;;;;;;;16.63;12.82;;;;;;;;;;5085637;28;20645;-55
2023/08/24 00:24:24;;;;;;;15.70;11.83;;;;;;;;;;5087575;28;20103;-52
2023/08/24 00:26:50;;;;;;;14.03;12.40;;;;;;;;;;5085263;28;20428;-57
2023/08/24 00:29:15;;;;;;;14.70;11.70;;;;;;;;;;5086330;28;20630;-56
2023/08/24 00:31:41;;;;;;;13.38;10.75;;;;;;;;;;5085454;28;20339;-55
2023/08/24 00:34:06;;;;;;;15.13;10.57;;;;;;;;;;5087622;28;20020;-55
2023/08/24 00:36:31;;;;;;;14.85;12.43;;;;;;;;;;5086369;28;20031;-54
2023/08/24 00:38:57;;;;;;;14.23;11.18;;;;;;;;;;5085923;28;20477;-54
2023/08/24 00:41:22;;;;;;;14.53;11.83;;;;;;;;;;5086949;28;20016;-55
2023/08/24 00:43:49;;;;;;;15.52;11.02;;;;;;;;;;5083007;28;20290;-56
2023/08/24 00:46:15;;;;;;;16.08;12.00;;;;;;;;;;5082988;28;20038;-56
2023/08/24 00:48:40;;;;;;;13.03;11.63;;;;;;;;;;5084946;28;20477;-56
2023/08/24 00:51:05;;;;;;;21.00;12.43;;;;;;;;;;5086910;28;20269;-51
2023/08/24 00:53:31;;;;;;;17.75;12.80;;;;;;;;;;5085571;28;20526;-55
2023/08/24 00:55:57;;;;;;;14.85;11.80;;;;;;;;;;5100608;28;20477;-56
2023/08/24 00:58:23;;;;;;;16.88;12.30;;;;;;;;;;5084399;28;20346;-56
2023/08/24 01:00:52;;;;;;;15.10;11.35;;;;;;;;;;5086546;28;20052;-57
2023/08/24 01:03:17;;;;;;;13.35;11.50;;;;;;;;;;5084097;28;20111;-56
2023/08/24 01:05:44;;;;;;;13.55;11.75;;;;;;;;;;5084095;28;20128;-54
2023/08/24 01:08:09;;;;;;;16.63;11.50;;;;;;;;;;5081563;28;20032;-55
2023/08/24 01:10:53;;;;;;;12.70;11.03;;;;;;;;;;5085216;28;20031;-57
2023/08/24 01:13:25;;;;;;;14.38;11.30;;;;;;;;;;5084276;28;20335;-56
2023/08/24 01:15:50;;;;;;;16.27;11.63;;;;;;;;;;5085415;28;20093;-57
2023/08/24 01:18:18;;;;;;;17.33;11.90;;;;;;;;;;5083956;28;20577;-55
2023/08/24 01:20:43;;;;;;;14.75;11.45;;;;;;;;;;5083635;28;20012;-55
2023/08/24 01:23:15;;;;;;;14.93;10.98;;;;;;;;;;5085207;28;20081;-56
2023/08/24 01:25:42;;;;;;;12.63;11.20;;;;;;;;;;5085784;28;20404;-56
2023/08/24 01:28:08;;;;;;;13.50;11.40;;;;;;;;;;5082308;28;20412;-55
2023/08/24 01:30:35;;;;;;;17.55;10.82;;;;;;;;;;5085286;28;20020;-54
2023/08/24 01:33:02;;;;;;;12.23;10.57;;;;;;;;;;5083216;28;20024;-58
2023/08/24 01:35:27;;;;;;;16.13;11.60;;;;;;;;;;5083705;28;20405;-56
2023/08/24 01:37:52;;;;;;;11.50;9.43;;;;;;;;;;5080829;28;20031;-53
2023/08/24 01:40:26;;;;;;;12.82;11.07;;;;;;;;;;5085612;28;20248;-55
2023/08/24 01:42:54;;;;;;;13.27;9.90;;;;;;;;;;5081204;28;20028;-55
2023/08/24 01:45:22;;;;;;;12.25;10.60;;;;;;;;;;5079805;28;20077;-53
2023/08/24 01:47:48;;;;;;;13.68;10.50;;;;;;;;;;5082884;28;20055;-56
2023/08/24 01:50:13;;;;;;;13.68;9.95;;;;;;;;;;5085932;28;20027;-56
2023/08/24 01:52:39;;;;;;;26.25;10.98;;;;;;;;;;5081678;28;20050;-52
2023/08/24 01:55:05;;;;;;;13.02;9.38;;;;;;;;;;5085466;28;20446;-55
2023/08/24 01:57:30;;;;;;;16.08;10.73;;;;;;;;;;5083283;28;20028;-51
2023/08/24 01:59:55;;;;;;;13.20;10.63;;;;;;;;;;5085400;28;20020;-57
2023/08/24 02:02:21;;;;;;;12.90;10.43;;;;;;;;;;5083309;28;20323;-54
2023/08/24 02:04:46;;;;;;;11.77;9.50;;;;;;;;;;5083846;28;20264;-55
2023/08/24 02:07:11;;;;;;;14.82;10.68;;;;;;;;;;5082946;28;20334;-53
2023/08/24 02:09:37;;;;;;;11.73;10.50;;;;;;;;;;5085137;28;20040;-56
2023/08/24 02:12:02;;;;;;;15.27;9.57;;;;;;;;;;5082711;28;20265;-57
2023/08/24 02:14:27;;;;;;;11.77;10.45;;;;;;;;;;5084449;28;20024;-55
2023/08/24 02:16:53;;;;;;;14.70;10.00;;;;;;;;;;5083067;28;20058;-57
2023/08/24 02:19:18;;;;;;;11.30;9.98;;;;;;;;;;5083765;28;20111;-56
2023/08/24 02:21:43;;;;;;;12.05;9.73;;;;;;;;;;5081934;28;20076;-55
2023/08/24 02:24:09;;;;;;;13.38;10.35;;;;;;;;;;5085054;28;20111;-57
2023/08/24 02:26:34;;;;;;;10.60;9.13;;;;;;;;;;5084664;28;20059;-56
2023/08/24 02:28:59;;;;;;;15.60;10.70;;;;;;;;;;5088038;28;20283;-56
2023/08/24 02:31:25;;;;;;;12.15;10.70;;;;;;;;;;5087386;28;20320;-53
2023/08/24 02:33:50;;;;;;;14.33;10.17;;;;;;;;;;5085863;28;20434;-55
2023/08/24 02:36:15;;;;;;;12.87;10.43;;;;;;;;;;5088473;28;20374;-55
2023/08/24 02:38:40;;;;;;;11.03;8.73;;;;;;;;;;5087562;28;20347;-54
2023/08/24 02:41:06;;;;;;;12.55;9.43;;;;;;;;;;5088727;28;20249;-55
2023/08/24 02:43:32;;;;;;;11.25;9.55;;;;;;;;;;5087063;28;20059;-55
2023/08/24 02:46:04;;;;;;;12.25;9.50;;;;;;;;;;5087464;28;20062;-55
2023/08/24 02:48:30;;;;;;;12.48;10.70;;;;;;;;;;5086065;28;20109;-56
2023/08/24 02:50:56;;;;;;;12.77;10.98;;;;;;;;;;5086935;28;20523;-55
2023/08/24 02:53:22;;;;;;;10.27;8.90;;;;;;;;;;5087350;28;20097;-54
2023/08/24 02:55:47;;;;;;;10.73;9.60;;;;;;;;;;5088215;28;20385;-57
2023/08/24 02:58:12;;;;;;;12.40;10.75;;;;;;;;;;5087401;28;20276;-54
2023/08/24 03:00:38;;;;;;;11.93;10.07;;;;;;;;;;5102240;28;20035;-55
2023/08/24 03:03:05;;;;;;;14.23;10.43;;;;;;;;;;5086133;28;20261;-56
2023/08/24 03:05:31;;;;;;;13.95;9.07;;;;;;;;;;5087310;28;20035;-54
2023/08/24 03:07:56;;;;;;;10.50;8.27;;;;;;;;;;5083757;28;20036;-53
2023/08/24 03:10:21;;;;;;;13.83;10.10;;;;;;;;;;5088495;28;20484;-55
2023/08/24 03:12:46;;;;;;;12.33;10.00;;;;;;;;;;5086734;28;20261;-53
2023/08/24 03:15:12;;;;;;;11.67;9.33;;;;;;;;;;5084675;28;20257;-54
2023/08/24 03:17:37;;;;;;;12.20;8.77;;;;;;;;;;5083632;28;20265;-56
2023/08/24 03:20:02;;;;;;;13.40;9.53;;;;;;;;;;5088210;28;20435;-55
2023/08/24 03:22:28;;;;;;;11.25;8.90;;;;;;;;;;5085046;28;20271;-56
2023/08/24 03:24:53;;;;;;;12.77;9.93;;;;;;;;;;5087189;28;20393;-56
2023/08/24 03:27:18;;;;;;;13.93;8.73;;;;;;;;;;5086307;28;20020;-55
2023/08/24 03:29:43;;;;;;;10.97;9.47;;;;;;;;;;5087589;28;20283;-55
2023/08/24 03:32:09;;;;;;;11.83;9.97;;;;;;;;;;5085828;28;20264;-55
2023/08/24 03:34:34;;;;;;;11.60;8.83;;;;;;;;;;5086611;28;20359;-57
2023/08/24 03:36:59;;;;;;;11.77;9.02;;;;;;;;;;5085644;28;20269;-54
2023/08/24 03:39:24;;;;;;;11.07;8.43;;;;;;;;;;5084196;28;20109;-55
2023/08/24 03:41:50;;;;;;;11.27;9.17;;;;;;;;;;5085557;28;20265;-55
2023/08/24 03:44:15;;;;;;;10.75;9.52;;;;;;;;;;5085827;28;20637;-55
2023/08/24 03:46:40;;;;;;;11.83;10.20;;;;;;;;;;5084256;28;20469;-53
2023/08/24 03:49:05;;;;;;;11.60;9.80;;;;;;;;;;5087069;28;20284;-55
2023/08/24 03:51:31;;;;;;;13.60;10.57;;;;;;;;;;5086284;28;20295;-55
2023/08/24 03:53:56;;;;;;;14.65;11.18;;;;;;;;;;5085804;28;20760;-55
2023/08/24 03:56:22;;;;;;;11.85;10.02;;;;;;;;;;5087366;28;20016;-54
2023/08/24 03:58:47;;;;;;;11.80;10.17;;;;;;;;;;5086107;28;20024;-56
2023/08/24 04:01:12;;;;;;;14.75;10.52;;;;;;;;;;5087187;28;20260;-55
2023/08/24 04:03:38;;;;;;;12.45;11.00;;;;;;;;;;5085282;28;20328;-57
2023/08/24 04:06:03;;;;;;;11.93;9.70;;;;;;;;;;5084807;28;20024;-57
2023/08/24 04:08:28;;;;;;;12.73;9.80;;;;;;;;;;5083057;28;20036;-54
2023/08/24 04:10:54;;;;;;;11.70;9.87;;;;;;;;;;5086722;28;20096;-53
2023/08/24 04:13:19;;;;;;;11.10;9.57;;;;;;;;;;5084953;28;20602;-56
2023/08/24 04:15:44;;;;;;;12.15;9.55;;;;;;;;;;5086462;28;20282;-54
2023/08/24 04:18:11;;;;;;;12.25;10.30;;;;;;;;;;5084285;28;20115;-55
2023/08/24 04:20:36;;;;;;;17.27;10.00;;;;;;;;;;5083093;28;20023;-53
2023/08/24 04:23:01;;;;;;;13.65;10.25;;;;;;;;;;5080809;28;20032;-54
2023/08/24 04:25:27;;;;;;;13.40;9.43;;;;;;;;;;5081857;28;20026;-55
2023/08/24 04:27:52;;;;;;;15.57;9.88;;;;;;;;;;5084820;28;20082;-55
2023/08/24 04:30:17;;;;;;;16.23;10.68;;;;;;;;;;5085750;28;20035;-57
2023/08/24 04:32:43;;;;;;;11.80;10.48;;;;;;;;;;5084047;28;20040;-53
2023/08/24 04:35:08;;;;;;;14.68;10.20;;;;;;;;;;5086320;28;20039;-56
2023/08/24 04:37:33;;;;;;;9.60;8.55;;;;;;;;;;5081837;28;20020;-55
2023/08/24 04:39:58;;;;;;;15.33;11.43;;;;;;;;;;5065684;28;20126;-55
2023/08/24 04:42:24;;;;;;;16.43;11.50;;;;;;;;;;5083937;28;20249;-53
2023/08/24 04:44:50;;;;;;;12.70;10.40;;;;;;;;;;5080343;28;20347;-52
2023/08/24 04:47:16;;;;;;;15.02;11.27;;;;;;;;;;5082983;28;20437;-55
2023/08/24 04:49:41;;;;;;;11.88;9.43;;;;;;;;;;5086453;28;20032;-56
2023/08/24 04:52:06;;;;;;;11.55;9.90;;;;;;;;;;5080847;28;20048;-56
2023/08/24 04:54:32;;;;;;;15.47;11.83;;;;;;;;;;5085520;28;20019;-55
2023/08/24 04:56:57;;;;;;;12.40;9.80;;;;;;;;;;5083971;28;20631;-55
2023/08/24 04:59:23;;;;;;;16.52;11.48;;;;;;;;;;5086261;28;20377;-52
2023/08/24 05:01:48;;;;;;;15.32;11.25;;;;;;;;;;5085229;28;20385;-56
2023/08/24 05:04:13;;;;;;;12.93;9.73;;;;;;;;;;5083818;28;20477;-54
2023/08/24 05:06:39;;;;;;;14.40;11.27;;;;;;;;;;5081890;28;20257;-54
2023/08/24 05:09:04;;;;;;;12.52;10.90;;;;;;;;;;5085010;28;20680;-55
2023/08/24 05:11:30;;;;;;;15.43;10.45;;;;;;;;;;5084651;28;20030;-51
2023/08/24 05:13:56;;;;;;;15.65;10.45;;;;;;;;;;5081429;28;20019;-56
2023/08/24 05:16:21;;;;;;;10.35;8.70;;;;;;;;;;5083461;28;20462;-55
2023/08/24 05:18:46;;;;;;;11.40;8.15;;;;;;;;;;5076672;28;20385;-55
2023/08/24 05:21:11;;;;;;;12.45;9.60;;;;;;;;;;5083107;28;20044;-57
2023/08/24 05:23:37;;;;;;;14.32;9.75;;;;;;;;;;5083668;28;20103;-52
2023/08/24 05:26:02;;;;;;;12.45;9.63;;;;;;;;;;5082236;28;20491;-55
2023/08/24 05:28:29;;;;;;;11.80;8.90;;;;;;;;;;5083049;28;20039;-57
2023/08/24 05:30:55;;;;;;;12.02;8.43;;;;;;;;;;5085872;28;20029;-55
2023/08/24 05:33:21;;;;;;;16.90;9.40;;;;;;;;;;5082665;28;20461;-57
2023/08/24 05:35:46;;;;;;;11.88;7.82;;;;;;;;;;5085355;28;20032;-56
2023/08/24 05:38:12;;;;;;;12.77;7.65;;;;;;;;;;5084852;28;20118;-56
2023/08/24 05:40:38;;;;;;;14.63;7.45;;;;;;;;;;5085222;28;20225;-56
2023/08/24 05:43:04;;;;;;;13.48;9.13;;;;;;;;;;5081402;28;20051;-56
2023/08/24 05:45:29;;;;;;;11.82;7.90;;;;;;;;;;5084393;28;20473;-55
2023/08/24 05:47:54;;;;;;;11.27;8.20;;;;;;;;;;5080209;28;20059;-56
2023/08/24 05:50:20;;;;;;;16.63;8.97;;;;;;;;;;5081874;28;20016;-54
2023/08/24 05:52:45;;;;;;;15.00;8.17;;;;;;;;;;5082792;28;20899;-53
2023/08/24 05:55:10;;;;;;;12.70;8.17;;;;;;;;;;5082487;28;20343;-56
2023/08/24 05:57:35;;;;;;;35.10;9.37;;;;;;;;;;5082155;28;20778;-55
2023/08/24 06:00:01;;;;;;;9.65;7.03;;;;;;;;;;5071420;28;20313;-54
2023/08/24 06:02:26;;;;;;;17.43;8.30;;;;;;;;;;5070553;28;20020;-57
2023/08/24 06:04:51;;;;;;;10.40;7.30;;;;;;;;;;5080535;28;20066;-56
2023/08/24 06:07:17;;;;;;;8.60;7.40;;;;;;;;;;5074083;28;20017;-56
2023/08/24 06:09:42;;;;;;;13.93;8.90;;;;;;;;;;5078443;28;20296;-57
2023/08/24 06:12:08;;;;;;;9.35;7.55;;;;;;;;;;5081351;28;20061;-57
2023/08/24 06:14:33;;;;;;;13.25;8.38;;;;;;;;;;5076309;28;20509;-56
2023/08/24 06:16:58;;;;;;;13.60;9.73;;;;;;;;;;5066206;28;21235;-56
2023/08/24 06:19:23;;;;;;;15.07;8.23;;;;;;;;;;5080866;28;20725;-57
2023/08/24 06:21:49;;;;;;;13.50;7.33;;;;;;;;;;5073122;28;20121;-55
2023/08/24 06:24:14;;;;;;;10.00;7.45;;;;;;;;;;5079161;28;21004;-57
2023/08/24 06:26:40;;;;;;;19.48;8.52;;;;;;;;;;5082551;28;20410;-56
2023/08/24 06:29:05;;;;;;;12.17;7.47;;;;;;;;;;5077504;28;20502;-57
2023/08/24 06:31:31;;;;;;;9.73;7.40;;;;;;;;;;5080851;28;20305;-57
2023/08/24 06:33:56;;;;;;;14.52;9.38;;;;;;;;;;5077416;28;20406;-57
2023/08/24 06:36:21;;;;;;;12.43;8.63;;;;;;;;;;5082155;28;20028;-57
2023/08/24 06:38:47;;;;;;;15.32;8.65;;;;;;;;;;5081454;28;20268;-55
2023/08/24 06:41:12;;;;;;;17.40;7.50;;;;;;;;;;5083011;28;20193;-57
2023/08/24 06:43:40;;;;;;;9.75;8.05;;;;;;;;;;5078021;28;20059;-57
2023/08/24 06:46:09;;;;;;;11.32;7.45;;;;;;;;;;5083549;28;20020;-56
2023/08/24 06:48:35;;;;;;;11.45;8.18;;;;;;;;;;5079741;28;20047;-57
2023/08/24 06:51:00;;;;;;;13.25;8.23;;;;;;;;;;5084207;28;20334;-56
2023/08/24 06:53:25;;;;;;;10.87;7.90;;;;;;;;;;5078822;28;20075;-54
2023/08/24 06:55:57;;;;;;;12.20;8.70;;;;;;;;;;5078386;28;20602;-56
2023/08/24 06:58:22;;;;;;;10.32;7.95;;;;;;;;;;5067444;28;20099;-58
2023/08/24 07:00:50;;;;;;;134.77;18.45;;;;;;;;;;5074668;28;20032;-57
2023/08/24 07:03:15;;;;;;;11.48;8.13;;;;;;;;;;5070266;28;20415;-55
2023/08/24 07:05:41;;;;;;;9.87;7.80;;;;;;;;;;5072166;28;20346;-54
2023/08/24 07:08:06;;;;;;;9.10;7.95;;;;;;;;;;5074804;28;20364;-56
2023/08/24 07:10:32;;;;;;;10.73;9.60;;;;;;;;;;5077535;28;20032;-55
2023/08/24 07:12:58;;;;;;;18.05;8.45;;;;;;;;;;5073171;28;20039;-54
2023/08/24 07:15:24;;;;;;;8.93;7.73;;;;;;;;;;5085998;28;20023;-56
2023/08/24 07:17:49;;;;;;;14.88;8.23;;;;;;;;;;5085936;28;20260;-56
2023/08/24 07:20:14;;;;;;;11.85;7.53;;;;;;;;;;5102563;28;20385;-57
2023/08/24 07:22:40;;;;;;;11.80;7.10;;;;;;;;;;5084378;28;20377;-54
2023/08/24 07:25:05;;;;;;;8.40;7.57;;;;;;;;;;5084288;28;20265;-56
2023/08/24 07:27:34;;;;;;;9.55;8.25;;;;;;;;;;5078094;28;20283;-52
2023/08/24 07:29:59;;;;;;;;;;;;;;;;;;5083283;28;20028;-56
2023/08/24 07:32:26;;;;;;;14.40;8.02;;;;;;;;;;5080520;28;19953;-57
2023/08/24 07:34:51;;;;;;;9.68;8.05;;;;;;;;;;5083352;28;20036;-56
2023/08/24 07:37:16;;;;;;;10.43;8.27;;;;;;;;;;5076616;28;20020;-56
2023/08/24 07:39:42;;;;;;;12.88;8.77;;;;;;;;;;5084142;28;20019;-57
2023/08/24 07:42:07;;;;;;;9.50;7.63;;;;;;;;;;5078650;28;20020;-54
2023/08/24 07:44:32;;;;;;;12.43;7.33;;;;;;;;;;5081568;28;20027;-56
2023/08/24 07:46:57;;;;;;;12.67;7.13;;;;;;;;;;5081003;28;20039;-56
2023/08/24 07:49:23;;;;;;;8.87;7.57;;;;;;;;;;5075801;28;20032;-54
2023/08/24 07:51:48;;;;;;;9.30;7.23;;;;;;;;;;5079432;28;20138;-56
2023/08/24 07:54:13;;;;;;;13.63;7.40;;;;;;;;;;5077283;28;20142;-56
2023/08/24 07:56:38;;;;;;;8.80;7.13;;;;;;;;;;5098595;28;20114;-56
2023/08/24 07:59:04;;;;;;;9.50;6.72;;;;;;;;;;5080926;28;20335;-56
2023/08/24 08:01:30;;;;;;;9.63;7.23;;;;;;;;;;5076315;28;20017;-56
2023/08/24 08:03:55;;;;;;;9.43;7.07;;;;;;;;;;5079671;28;20016;-57
2023/08/24 08:06:21;;;;;;;11.30;6.40;;;;;;;;;;5074074;28;20020;-56
2023/08/24 08:08:47;;;;;;;10.02;6.85;;;;;;;;;;5071064;28;20028;-55
2023/08/24 08:11:12;;;;;;;14.18;7.07;;;;;;;;;;5074870;28;20030;-56
2023/08/24 08:13:37;;;;;;;10.83;6.73;;;;;;;;;;5078914;28;20031;-56
2023/08/24 08:16:04;;;;;;;10.30;6.93;;;;;;;;;;5077732;28;20027;-53
2023/08/24 08:18:29;;;;;;;11.68;7.15;;;;;;;;;;5082577;28;20311;-57
2023/08/24 08:20:54;;;;;;;7.95;6.60;;;;;;;;;;5099362;28;20477;-57
2023/08/24 08:23:20;;;;;;;9.20;7.47;;;;;;;;;;5084647;28;20407;-56
2023/08/24 08:25:45;;;;;;;9.17;6.97;;;;;;;;;;5085870;28;20542;-57
2023/08/24 08:28:11;;;;;;;9.80;7.17;;;;;;;;;;5081996;28;20345;-56
2023/08/24 08:30:36;;;;;;;11.43;7.72;;;;;;;;;;5080176;28;20027;-51
2023/08/24 08:33:01;;;;;;;9.10;6.70;;;;;;;;;;5075263;28;20129;-57
2023/08/24 08:35:26;;;;;;;8.53;7.40;;;;;;;;;;5076298;28;20340;-56
2023/08/24 08:37:53;;;;;;;8.10;6.73;;;;;;;;;;5077388;28;20476;-58
2023/08/24 08:40:19;;;;;;;9.75;7.05;;;;;;;;;;5086281;28;20020;-57
2023/08/24 08:42:44;;;;;;;10.65;6.85;;;;;;;;;;5084095;28;20490;-56
2023/08/24 08:45:10;;;;;;;10.82;6.97;;;;;;;;;;5084900;28;20024;-55
2023/08/24 08:47:35;;;;;;;9.77;7.28;;;;;;;;;;5074518;28;20342;-56
2023/08/24 08:50:05;;;;;;;10.82;6.28;;;;;;;;;;5074577;28;20067;-55
2023/08/24 08:52:33;;;;;;;7.28;5.97;;;;;;;;;;5066334;28;20054;-56
2023/08/24 08:54:59;;;;;;;8.13;5.85;;;;;;;;;;5076158;28;20023;-56
2023/08/24 08:57:25;;;;;;;8.35;6.57;;;;;;;;;;5082195;28;20032;-57
2023/08/24 08:59:52;;;;;;;8.65;6.38;;;;;;;;;;5077078;28;20238;-57
2023/08/24 09:02:18;;;;;;;7.40;5.28;;;;;;;;;;5075091;28;20031;-54
2023/08/24 09:04:44;;;;;;;8.90;5.82;;;;;;;;;;5078042;28;20498;-54
2023/08/24 09:07:11;;;;;;;8.02;6.07;;;;;;;;;;5083380;28;20050;-57
2023/08/24 09:09:37;;;;;;;9.23;5.82;;;;;;;;;;5081474;28;20376;-56
2023/08/24 09:12:03;;;;;;;7.07;6.22;;;;;;;;;;5080459;28;20135;-55
2023/08/24 09:14:29;;;;;;;6.18;5.43;;;;;;;;;;5072900;28;20106;-55
2023/08/24 09:16:54;;;;;;;11.10;6.77;;;;;;;;;;5074733;28;20032;-57
2023/08/24 09:19:27;;;;;;;11.87;6.70;;;;;;;;;;5081622;28;20502;-57
2023/08/24 09:21:56;;;;;;;7.60;5.70;;;;;;;;;;5073656;28;20547;-56
2023/08/24 09:24:28;;;;;;;10.40;6.72;;;;;;;;;;5077450;28;20510;-58
2023/08/24 09:26:54;;;;;;;7.30;5.95;;;;;;;;;;5082127;28;20032;-57
2023/08/24 09:29:20;;;;;;;11.80;6.67;;;;;;;;;;5083282;28;20027;-56
2023/08/24 09:31:45;;;;;;;5.82;4.93;;;;;;;;;;5076761;28;20020;-56
2023/08/24 09:34:11;;;;;;;8.07;5.00;;;;;;;;;;5080488;28;20016;-56
2023/08/24 09:36:36;;;;;;;7.78;5.38;;;;;;;;;;5063714;28;20356;-54
2023/08/24 09:39:06;;;;;;;8.68;5.28;;;;;;;;;;5081715;28;20024;-55
2023/08/24 09:41:43;;;;;;;9.27;5.47;;;;;;;;;;5080944;28;20601;-56
2023/08/24 09:44:08;;;;;;;8.90;5.97;;;;;;;;;;5080805;28;20016;-55
2023/08/24 09:46:34;;;;;;;9.23;5.30;;;;;;;;;;5083458;28;20039;-54
2023/08/24 09:49:01;;;;;;;7.43;5.43;;;;;;;;;;5082469;28;20291;-54
2023/08/24 09:51:27;;;;;;;7.40;5.03;;;;;;;;;;5080649;28;20031;-56
2023/08/24 09:53:55;;;;;;;6.20;5.60;;;;;;;;;;5080056;28;20389;-55
2023/08/24 09:56:22;;;;;;;10.52;5.40;;;;;;;;;;5083306;28;20016;-55
2023/08/24 09:58:49;;;;;;;6.68;5.65;;;;;;;;;;5081640;28;20080;-56
2023/08/24 10:01:15;;;;;;;5.40;4.90;;;;;;;;;;5084898;28;20028;-57
2023/08/24 10:03:41;;;;;;;7.72;5.20;;;;;;;;;;5076065;28;20059;-54
2023/08/24 10:06:09;;;;;;;7.75;5.55;;;;;;;;;;5081308;28;20112;-57
2023/08/24 10:08:37;;;;;;;8.35;5.55;;;;;;;;;;5083763;28;20051;-52
2023/08/24 10:11:02;;;;;;;9.50;5.50;;;;;;;;;;5082674;28;20047;-55
2023/08/24 10:13:44;;;;;;;7.57;4.78;;;;;;;;;;5082518;28;20045;-56
2023/08/24 10:16:12;;;;;;;7.80;4.72;;;;;;;;;;5083060;28;20023;-56
2023/08/24 10:18:38;;;;;;;8.52;5.50;;;;;;;;;;5079692;28;20027;-54
2023/08/24 10:21:03;;;;;;;11.57;5.22;;;;;;;;;;5083410;28;20604;-56
2023/08/24 10:23:29;;;;;;;6.72;5.43;;;;;;;;;;5080824;28;20016;-56
2023/08/24 10:25:55;;;;;;;5.60;5.00;;;;;;;;;;5083418;28;20040;-56
2023/08/24 10:28:20;;;;;;;6.80;4.75;;;;;;;;;;5068827;28;20433;-56
2023/08/24 10:30:46;;;;;;;6.03;4.88;;;;;;;;;;5072075;28;20057;-57
2023/08/24 10:33:13;;;;;;;6.55;5.15;;;;;;;;;;5074442;28;20553;-56
2023/08/24 10:35:39;;;;;;;5.63;4.72;;;;;;;;;;5072320;28;20408;-56
2023/08/24 10:38:05;;;;;;;5.60;5.10;;;;;;;;;;5077759;28;20020;-55
2023/08/24 10:40:31;;;;;;;6.50;4.97;;;;;;;;;;5079332;28;20327;-55
2023/08/24 10:42:56;;;;;;;5.03;4.40;;;;;;;;;;5073694;28;20267;-54
2023/08/24 10:45:22;;;;;;;8.20;5.33;;;;;;;;;;5078582;28;20107;-56
2023/08/24 10:47:52;;;;;;;9.82;5.68;;;;;;;;;;5073477;28;20369;-56
2023/08/24 10:50:18;;;;;;;11.27;5.35;;;;;;;;;;5079064;28;20036;-57
2023/08/24 10:52:44;;;;;;;6.20;4.75;;;;;;;;;;5078835;28;20282;-56
2023/08/24 10:55:22;;;;;;;7.82;4.43;;;;;;;;;;5068074;28;20539;-54
2023/08/24 10:57:55;;;;;;;8.80;4.63;;;;;;;;;;5083112;28;20028;-55
2023/08/24 11:00:22;;;;;;;4.78;4.38;;;;;;;;;;5076847;28;20031;-56
2023/08/24 11:02:48;;;;;;;7.47;4.63;;;;;;;;;;5073849;28;20105;-54
2023/08/24 11:05:21;;;;;;;5.82;4.43;;;;;;;;;;5077690;28;20031;-56
2023/08/24 11:07:50;;;;;;;5.70;4.70;;;;;;;;;;5075005;28;20062;-55
2023/08/24 11:10:16;;;;;;;6.60;4.75;;;;;;;;;;5077384;28;20058;-55
2023/08/24 11:13:00;;;;;;;6.78;4.93;;;;;;;;;;5076689;28;20052;-57
2023/08/24 11:15:34;;;;;;;7.03;4.55;;;;;;;;;;5076209;28;20373;-57
2023/08/24 11:18:15;;;;;;;5.38;4.60;;;;;;;;;;5079862;28;20865;-56
2023/08/24 11:20:47;;;;;;;5.05;4.40;;;;;;;;;;5076592;28;20822;-56
2023/08/24 11:23:12;;;;;;;6.60;4.40;;;;;;;;;;5076727;28;20457;-51
2023/08/24 11:25:38;;;;;;;7.50;4.35;;;;;;;;;;5075737;28;20031;-56
2023/08/24 11:28:04;;;;;;;6.90;4.20;;;;;;;;;;5078935;28;20031;-56
2023/08/24 11:30:30;;;;;;;5.25;4.68;;;;;;;;;;5074667;28;20385;-57
2023/08/24 11:32:55;;;;;;;5.63;5.03;;;;;;;;;;5076448;28;20070;-56
2023/08/24 11:35:23;;;;;;;5.88;4.28;;;;;;;;;;5093520;28;20077;-56
2023/08/24 11:37:51;;;;;;;5.93;4.97;;;;;;;;;;5080143;28;20028;-54
2023/08/24 11:40:18;;;;;;;5.40;4.72;;;;;;;;;;5078889;28;20574;-55
2023/08/24 11:42:44;;;;;;;11.70;7.30;;;;;;;;;;5097398;28;20219;-57
2023/08/24 11:45:15;;;;;;;13.40;6.43;;;;;;;;;;5096519;28;20039;-56
2023/08/24 11:47:40;;;;;;;14.60;5.78;;;;;;;;;;5090433;28;20063;-55
2023/08/24 11:50:06;;;;;;;6.85;4.50;;;;;;;;;;5092172;28;20114;-56
2023/08/24 11:52:35;;;;;;;6.95;4.40;;;;;;;;;;5100320;28;20139;-57
2023/08/24 11:55:00;;;;;;;5.82;4.78;;;;;;;;;;5096667;28;20464;-56
2023/08/24 11:57:27;;;;;;;7.32;4.95;;;;;;;;;;5093171;28;20112;-55
2023/08/24 11:59:53;;;;;;;7.00;4.75;;;;;;;;;;5098760;28;20084;-55
2023/08/24 12:02:18;;;;;;;6.75;4.65;;;;;;;;;;5095104;28;20389;-54
2023/08/24 12:04:44;;;;;;;6.85;4.18;;;;;;;;;;5056603;28;20067;-57
2023/08/24 12:07:12;;;;;;;9.33;5.00;;;;;;;;;;5094410;28;20832;-54
2023/08/24 12:09:40;;;;;;;5.18;4.43;;;;;;;;;;5095367;28;20047;-57
2023/08/24 12:12:11;;;;;;;6.43;4.38;;;;;;;;;;5095419;28;20057;-55
2023/08/24 12:14:40;;;;;;;8.23;4.25;;;;;;;;;;5097828;28;20024;-56
2023/08/24 12:17:11;;;;;;;5.30;4.10;;;;;;;;;;5097929;28;20024;-57
2023/08/24 12:19:37;;;;;;;4.60;4.15;;;;;;;;;;5086312;28;20032;-56
2023/08/24 12:22:03;;;;;;;8.27;3.88;;;;;;;;;;5076350;28;20416;-56
2023/08/24 12:24:28;;;;;;;7.43;4.90;;;;;;;;;;5071298;28;20035;-56
2023/08/24 12:26:57;;;;;;;7.38;4.72;;;;;;;;;;5076652;28;20036;-57
2023/08/24 12:29:23;;;;;;;6.07;3.92;;;;;;;;;;5071472;28;20048;-56
2023/08/24 12:31:48;;;;;;;6.13;4.17;;;;;;;;;;5074792;28;20128;-57
2023/08/24 12:34:14;;;;;;;6.28;4.80;;;;;;;;;;5082767;28;20317;-58
2023/08/24 12:36:43;;;;;;;7.25;4.18;;;;;;;;;;5083021;28;20447;-57
2023/08/24 12:39:12;;;;;;;5.22;4.07;;;;;;;;;;5084139;28;20027;-56
2023/08/24 12:41:37;;;;;;;8.27;4.05;;;;;;;;;;5076655;28;20475;-58
2023/08/24 12:44:05;;;;;;;5.07;4.00;;;;;;;;;;5082673;28;20740;-57
2023/08/24 12:46:31;;;;;;;5.20;4.50;;;;;;;;;;5071177;28;20353;-55
2023/08/24 12:48:56;;;;;;;5.43;4.00;;;;;;;;;;5073082;28;20145;-57
2023/08/24 12:51:21;;;;;;;24.50;6.65;;;;;;;;;;5072612;28;20028;-57
2023/08/24 12:53:46;;;;;;;8.10;4.63;;;;;;;;;;5074215;28;20047;-57
2023/08/24 12:56:12;;;;;;;6.80;4.90;;;;;;;;;;5067849;28;20032;-56
2023/08/24 12:58:37;;;;;;;4.60;4.20;;;;;;;;;;5069122;28;20060;-56
2023/08/24 13:01:03;;;;;;;5.45;4.03;;;;;;;;;;5075196;28;20022;-57
2023/08/24 13:03:28;;;;;;;8.15;4.30;;;;;;;;;;5078263;28;20032;-57
2023/08/24 13:05:53;;;;;;;10.30;4.60;;;;;;;;;;5074807;28;20032;-57
2023/08/24 13:08:18;;;;;;;40.60;11.23;;;;;;;;;;5080109;28;20284;-58
2023/08/24 13:10:44;;;;;;;7.90;5.10;;;;;;;;;;5059601;28;20032;-57
2023/08/24 13:13:09;;;;;;;8.97;4.57;;;;;;;;;;5073979;28;20460;-57
2023/08/24 13:15:34;;;;;;;10.90;5.07;;;;;;;;;;5070072;28;20294;-57
2023/08/24 13:18:00;;;;;;;6.30;4.40;;;;;;;;;;5074955;28;20488;-56
2023/08/24 13:20:25;;;;;;;5.25;4.43;;;;;;;;;;5071562;28;20024;-56
2023/08/24 13:22:51;;;;;;;6.78;4.40;;;;;;;;;;5078540;28;20035;-53
2023/08/24 13:25:16;;;;;;;6.22;4.57;;;;;;;;;;5082397;28;20393;-58
2023/08/24 13:27:42;;;;;;;5.05;4.50;;;;;;;;;;5076077;28;20033;-57
2023/08/24 13:30:07;;;;;;;6.73;4.43;;;;;;;;;;5080169;28;20272;-55
2023/08/24 13:32:34;;;;;;;5.45;4.57;;;;;;;;;;5074286;28;20008;-57
2023/08/24 13:34:59;;;;;;;5.80;4.63;;;;;;;;;;5067874;28;20012;-55
2023/08/24 13:37:24;;;;;;;19.33;7.10;;;;;;;;;;5072670;28;20061;-56
2023/08/24 13:39:51;;;;;;;5.90;4.50;;;;;;;;;;5070733;28;20035;-57
2023/08/24 13:42:16;;;;;;;6.97;5.22;;;;;;;;;;5071057;28;20021;-56
2023/08/24 13:44:41;;;;;;;6.80;4.97;;;;;;;;;;5084574;28;20031;-55
2023/08/24 13:47:06;;;;;;;7.03;5.03;;;;;;;;;;5071610;28;20012;-56
2023/08/24 13:49:32;;;;;;;7.10;4.93;;;;;;;;;;5082142;28;20099;-57
2023/08/24 13:51:57;;;;;;;5.77;4.77;;;;;;;;;;5082673;28;20281;-56
2023/08/24 13:54:22;;;;;;;6.30;4.97;;;;;;;;;;5079774;28;20016;-57
2023/08/24 13:56:49;;;;;;;4.83;4.33;;;;;;;;;;5082431;28;20026;-58
2023/08/24 13:59:14;;;;;;;7.00;5.32;;;;;;;;;;5074345;28;20684;-53
2023/08/24 14:01:40;;;;;;;7.05;5.13;;;;;;;;;;5067452;28;20035;-58
2023/08/24 14:04:05;;;;;;;8.45;5.07;;;;;;;;;;5066591;28;20116;-55
2023/08/24 14:06:31;;;;;;;9.60;5.60;;;;;;;;;;5074645;28;20598;-53
2023/08/24 14:08:56;;;;;;;7.65;5.35;;;;;;;;;;5077686;28;20685;-55
2023/08/24 14:11:22;;;;;;;6.60;5.07;;;;;;;;;;5075578;28;20024;-57
2023/08/24 14:13:47;;;;;;;6.07;4.63;;;;;;;;;;5075410;28;20513;-54
2023/08/24 14:16:12;;;;;;;7.23;4.87;;;;;;;;;;5069933;28;20031;-56
2023/08/24 14:18:37;;;;;;;6.43;4.65;;;;;;;;;;5071607;28;20477;-57
2023/08/24 14:21:03;;;;;;;13.43;5.63;;;;;;;;;;5080771;28;20021;-57
2023/08/24 14:23:28;;;;;;;6.90;5.07;;;;;;;;;;5083569;28;20531;-57
2023/08/24 14:25:53;;;;;;;6.57;4.93;;;;;;;;;;5087107;28;20260;-56